createdAt,value
2018-01-25T00:01:10.662Z,8.65
2018-01-25T00:03:38.933Z,8.66
2018-01-25T00:06:06.553Z,8.65
2018-01-25T00:08:34.242Z,8.63
2018-01-25T00:11:01.843Z,8.63
2018-01-25T00:13:29.460Z,8.63
2018-01-25T00:15:57.166Z,8.63
2018-01-25T00:18:24.811Z,8.61
2018-01-25T00:20:53.206Z,8.60
2018-01-25T00:23:20.879Z,8.59
2018-01-25T00:25:48.457Z,8.60
2018-01-25T00:28:16.069Z,8.58
2018-01-25T00:30:43.884Z,8.57
2018-01-25T00:33:11.469Z,8.53
2018-01-25T00:35:39.087Z,8.56
2018-01-25T00:38:06.776Z,8.53
2018-01-25T00:40:34.430Z,8.53
2018-01-25T00:43:02.054Z,8.50
2018-01-25T00:45:29.726Z,8.50
2018-01-25T00:47:57.873Z,8.49
2018-01-25T00:50:26.200Z,8.48
2018-01-25T00:52:53.895Z,8.46
2018-01-25T00:55:22.106Z,8.46
2018-01-25T00:57:49.890Z,8.44
2018-01-25T01:00:17.892Z,8.40
2018-01-25T01:02:45.902Z,8.42
2018-01-25T01:05:13.638Z,8.41
2018-01-25T01:07:41.432Z,8.39
2018-01-25T01:10:09.071Z,8.39
2018-01-25T01:12:36.712Z,8.37
2018-01-25T01:15:04.541Z,8.37
2018-01-25T01:17:32.349Z,8.34
2018-01-25T01:20:00.050Z,8.34
2018-01-25T01:22:27.790Z,8.32
2018-01-25T01:24:55.412Z,8.32
2018-01-25T01:27:23.214Z,8.31
2018-01-25T01:29:50.972Z,8.30
2018-01-25T01:32:18.680Z,8.29
2018-01-25T01:34:46.306Z,8.29
2018-01-25T01:37:13.884Z,8.28
2018-01-25T01:39:43.604Z,8.27
2018-01-25T01:42:11.322Z,8.26
2018-01-25T01:44:39.026Z,8.24
2018-01-25T01:47:06.885Z,8.23
2018-01-25T01:49:34.498Z,8.22
2018-01-25T01:52:02.326Z,8.22
2018-01-25T01:54:30.016Z,8.21
2018-01-25T01:56:58.094Z,8.20
2018-01-25T01:59:25.688Z,8.19
2018-01-25T02:01:53.376Z,8.18
2018-01-25T02:04:21.525Z,8.17
2018-01-25T02:06:49.138Z,8.16
2018-01-25T02:09:16.893Z,8.16
2018-01-25T02:11:44.554Z,8.15
2018-01-25T02:14:12.209Z,8.14
2018-01-25T02:16:39.996Z,8.14
2018-01-25T02:19:07.659Z,8.13
2018-01-25T02:21:35.322Z,8.12
2018-01-25T02:24:03.079Z,8.11
2018-01-25T02:26:31.291Z,8.11
2018-01-25T02:29:01.432Z,8.11
2018-01-25T02:31:29.256Z,8.11
2018-01-25T02:33:56.847Z,8.09
2018-01-25T02:36:24.467Z,8.09
2018-01-25T02:38:52.201Z,8.09
2018-01-25T02:41:20.089Z,8.08
2018-01-25T02:43:47.707Z,8.06
2018-01-25T02:46:15.437Z,8.08
2018-01-25T02:48:43.689Z,8.06
2018-01-25T02:51:11.503Z,8.05
2018-01-25T02:53:39.211Z,8.05
2018-01-25T02:56:07.311Z,8.05
2018-01-25T02:58:34.934Z,8.04
2018-01-25T03:01:02.696Z,8.03
2018-01-25T03:03:30.395Z,8.01
2018-01-25T03:05:58.024Z,8.00
2018-01-25T03:08:25.787Z,7.99
2018-01-25T03:10:53.435Z,7.98
2018-01-25T03:13:21.038Z,7.98
2018-01-25T03:15:48.739Z,7.96
2018-01-25T03:18:16.491Z,7.95
2018-01-25T03:20:44.090Z,7.94
2018-01-25T03:23:12.864Z,7.93
2018-01-25T03:25:40.497Z,7.91
2018-01-25T03:28:08.906Z,7.90
2018-01-25T03:30:36.686Z,7.88
2018-01-25T03:33:04.307Z,7.88
2018-01-25T03:35:31.939Z,7.85
2018-01-25T03:37:59.753Z,7.85
2018-01-25T03:40:27.436Z,7.83
2018-01-25T03:42:55.079Z,7.80
2018-01-25T03:45:33.614Z,7.80
2018-01-25T03:48:01.242Z,7.78
2018-01-25T03:50:28.933Z,7.76
2018-01-25T03:52:56.689Z,7.77
2018-01-25T03:55:24.504Z,7.75
2018-01-25T03:57:52.320Z,7.73
2018-01-25T04:00:20.106Z,7.72
2018-01-25T04:02:47.711Z,7.71
2018-01-25T04:05:15.333Z,7.69
2018-01-25T04:07:43.047Z,7.67
2018-01-25T04:10:10.688Z,7.56
2018-01-25T04:12:38.293Z,7.66
2018-01-25T04:15:06.083Z,7.65
2018-01-25T04:17:33.690Z,7.63
2018-01-25T04:20:02.703Z,7.61
2018-01-25T04:22:30.430Z,7.60
2018-01-25T04:24:58.039Z,7.58
2018-01-25T04:27:25.824Z,7.58
2018-01-25T04:29:54.574Z,7.56
2018-01-25T04:32:23.349Z,7.55
2018-01-25T04:34:51.423Z,7.47
2018-01-25T04:37:19.220Z,7.52
2018-01-25T04:39:46.919Z,7.51
2018-01-25T04:42:14.678Z,7.50
2018-01-25T04:44:42.298Z,7.49
2018-01-25T04:47:10.069Z,7.49
2018-01-25T04:49:37.702Z,7.49
2018-01-25T04:52:05.341Z,7.48
2018-01-25T04:54:34.123Z,7.47
2018-01-25T04:57:01.820Z,7.43
2018-01-25T04:59:29.514Z,7.42
2018-01-25T05:01:57.247Z,7.45
2018-01-25T05:04:24.847Z,7.38
2018-01-25T05:06:52.455Z,7.44
2018-01-25T05:09:20.786Z,7.43
2018-01-25T05:11:48.362Z,7.54
2018-01-25T05:14:15.901Z,6.87
2018-01-25T05:16:43.605Z,6.30
2018-01-25T05:19:11.412Z,6.04
2018-01-25T05:21:38.969Z,5.75
2018-01-25T05:24:07.046Z,5.47
2018-01-25T05:26:34.566Z,5.28
2018-01-25T05:29:02.140Z,5.14
2018-01-25T05:31:29.797Z,5.02
2018-01-25T05:33:57.612Z,5.07
2018-01-25T05:36:25.426Z,7.49
2018-01-25T05:38:53.126Z,7.43
2018-01-25T05:41:20.704Z,6.10
2018-01-25T05:43:48.265Z,5.62
2018-01-25T05:46:15.967Z,5.24
2018-01-25T05:48:43.482Z,5.07
2018-01-25T05:51:11.379Z,4.83
2018-01-25T05:53:39.064Z,4.63
2018-01-25T05:56:06.601Z,4.73
2018-01-25T05:58:34.164Z,4.41
2018-01-25T06:01:02.459Z,4.37
2018-01-25T06:03:30.282Z,4.34
2018-01-25T06:05:58.650Z,4.31
2018-01-25T06:08:26.306Z,4.34
2018-01-25T06:10:53.827Z,4.15
2018-01-25T06:13:21.410Z,4.18
2018-01-25T06:15:49.115Z,4.22
2018-01-25T06:18:16.672Z,4.26
2018-01-25T06:20:44.311Z,4.44
2018-01-25T06:23:11.977Z,4.55
2018-01-25T06:25:39.742Z,5.04
2018-01-25T06:28:07.293Z,5.23
2018-01-25T06:30:34.996Z,5.45
2018-01-25T06:33:02.547Z,5.57
2018-01-25T06:35:30.069Z,5.68
2018-01-25T06:37:57.755Z,5.87
2018-01-25T06:40:25.607Z,6.14
2018-01-25T06:42:53.373Z,6.32
2018-01-25T06:45:21.079Z,6.43
2018-01-25T06:47:48.667Z,6.72
2018-01-25T06:50:16.209Z,6.91
2018-01-25T06:52:43.893Z,7.21
2018-01-25T06:55:11.756Z,7.56
2018-01-25T06:57:39.297Z,7.70
2018-01-25T07:00:07.125Z,7.88
2018-01-25T07:02:34.697Z,8.42
2018-01-25T07:05:02.332Z,8.70
2018-01-25T07:07:30.018Z,8.88
2018-01-25T07:09:57.656Z,9.13
2018-01-25T07:12:25.258Z,9.41
2018-01-25T07:14:52.933Z,9.86
2018-01-25T07:17:20.529Z,9.97
2018-01-25T07:19:48.105Z,10.34
2018-01-25T07:22:15.905Z,10.67
2018-01-25T07:24:43.414Z,10.81
2018-01-25T07:27:10.932Z,10.66
2018-01-25T07:29:38.704Z,11.23
2018-01-25T07:32:06.349Z,11.40
2018-01-25T07:34:33.887Z,11.77
2018-01-25T07:37:01.421Z,11.98
2018-01-25T07:39:29.106Z,12.39
2018-01-25T07:41:56.645Z,12.32
2018-01-25T07:44:24.241Z,12.33
2018-01-25T07:46:51.926Z,12.66
2018-01-25T07:49:19.495Z,12.70
2018-01-25T07:51:47.082Z,12.60
2018-01-25T07:54:14.771Z,12.34
2018-01-25T07:56:42.361Z,12.54
2018-01-25T07:59:09.952Z,12.37
2018-01-25T08:01:37.673Z,12.34
2018-01-25T08:04:05.277Z,12.38
2018-01-25T08:06:32.878Z,12.08
2018-01-25T08:09:00.574Z,12.81
2018-01-25T08:11:28.170Z,13.02
2018-01-25T08:13:55.694Z,12.39
2018-01-25T08:16:28.783Z,12.69
2018-01-25T08:18:56.693Z,13.34
2018-01-25T08:21:24.464Z,13.43
2018-01-25T08:23:52.170Z,13.90
2018-01-25T08:26:19.739Z,14.26
2018-01-25T08:28:47.458Z,14.50
2018-01-25T08:31:15.162Z,14.61
2018-01-25T08:33:42.757Z,15.13
2018-01-25T08:36:10.383Z,15.15
2018-01-25T08:38:38.152Z,15.26
2018-01-25T08:41:05.732Z,15.72
2018-01-25T08:43:33.300Z,16.04
2018-01-25T08:46:00.974Z,16.26
2018-01-25T08:48:28.517Z,15.72
2018-01-25T08:50:56.284Z,15.27
2018-01-25T08:53:23.976Z,15.80
2018-01-25T08:55:51.583Z,16.33
2018-01-25T08:58:19.185Z,16.27
2018-01-25T09:00:46.862Z,15.93
2018-01-25T09:03:14.398Z,16.19
2018-01-25T09:05:41.945Z,16.02
2018-01-25T09:08:09.605Z,16.38
2018-01-25T09:10:37.867Z,16.75
2018-01-25T09:13:05.865Z,17.25
2018-01-25T09:15:33.524Z,17.60
2018-01-25T09:18:01.112Z,17.44
2018-01-25T09:20:28.647Z,17.24
2018-01-25T09:22:56.364Z,17.10
2018-01-25T09:25:23.927Z,17.51
2018-01-25T09:27:51.513Z,18.04
2018-01-25T09:30:19.188Z,18.35
2018-01-25T09:32:46.753Z,18.47
2018-01-25T09:35:14.514Z,18.36
2018-01-25T09:37:42.190Z,18.97
2018-01-25T09:40:10.728Z,20.66
2018-01-25T09:42:38.348Z,21.75
2018-01-25T09:45:06.178Z,22.51
2018-01-25T09:47:33.804Z,23.09
2018-01-25T09:50:01.425Z,23.55
2018-01-25T09:52:29.196Z,24.00
2018-01-25T09:54:56.804Z,24.41
2018-01-25T09:57:24.441Z,24.79
2018-01-25T09:59:52.256Z,24.93
2018-01-25T10:02:20.029Z,25.26
2018-01-25T10:04:47.691Z,25.45
2018-01-25T10:07:15.302Z,25.66
2018-01-25T10:09:43.078Z,25.82
2018-01-25T10:12:10.688Z,25.99
2018-01-25T10:14:38.302Z,24.59
2018-01-25T10:17:05.958Z,23.65
2018-01-25T10:19:33.486Z,23.26
2018-01-25T10:22:01.059Z,22.95
2018-01-25T10:24:28.852Z,22.65
2018-01-25T10:26:56.676Z,22.48
2018-01-25T10:29:24.534Z,22.37
2018-01-25T10:31:52.204Z,22.17
2018-01-25T10:34:19.808Z,22.15
2018-01-25T10:36:47.408Z,21.95
2018-01-25T10:39:15.134Z,21.91
2018-01-25T10:41:42.694Z,21.71
2018-01-25T10:44:10.234Z,21.55
2018-01-25T10:46:37.937Z,21.47
2018-01-25T10:49:05.548Z,21.27
2018-01-25T10:51:33.127Z,21.12
2018-01-25T10:54:00.794Z,21.13
2018-01-25T10:56:28.571Z,21.05
2018-01-25T10:58:56.162Z,21.08
2018-01-25T11:01:29.355Z,20.94
2018-01-25T11:03:57.113Z,20.69
2018-01-25T11:06:24.741Z,20.51
2018-01-25T11:08:52.445Z,20.30
2018-01-25T11:11:20.008Z,20.20
2018-01-25T11:13:47.785Z,20.20
2018-01-25T11:16:15.456Z,20.15
2018-01-25T11:18:43.046Z,20.07
2018-01-25T11:21:10.645Z,20.03
2018-01-25T11:23:38.314Z,19.97
2018-01-25T11:26:05.926Z,20.00
2018-01-25T11:28:33.501Z,19.92
2018-01-25T11:31:01.189Z,19.85
2018-01-25T11:33:28.958Z,19.90
2018-01-25T11:35:56.538Z,19.61
2018-01-25T11:38:24.279Z,19.66
2018-01-25T11:40:52.113Z,19.70
2018-01-25T11:43:19.810Z,19.72
2018-01-25T11:45:47.507Z,19.81
2018-01-25T11:48:15.108Z,19.62
2018-01-25T11:50:42.889Z,19.69
2018-01-25T11:53:10.636Z,19.51
2018-01-25T11:55:38.235Z,19.56
2018-01-25T11:58:06.531Z,19.71
2018-01-25T12:00:34.239Z,19.67
2018-01-25T12:03:02.201Z,19.46
2018-01-25T12:05:29.777Z,19.42
2018-01-25T12:07:57.437Z,19.40
2018-01-25T12:10:25.025Z,19.46
2018-01-25T12:12:52.797Z,19.43
2018-01-25T12:15:20.496Z,19.47
2018-01-25T12:17:48.069Z,19.50
2018-01-25T12:20:15.818Z,19.25
2018-01-25T12:22:43.483Z,19.24
2018-01-25T12:25:11.100Z,19.17
2018-01-25T12:27:38.940Z,19.10
2018-01-25T12:30:06.752Z,18.93
2018-01-25T12:32:34.337Z,18.92
2018-01-25T12:35:01.876Z,18.83
2018-01-25T12:37:29.551Z,18.71
2018-01-25T12:39:57.201Z,18.72
2018-01-25T12:42:24.750Z,18.54
2018-01-25T12:44:52.412Z,18.55
2018-01-25T12:47:19.975Z,18.61
2018-01-25T12:49:47.566Z,18.44
2018-01-25T12:52:15.248Z,18.28
2018-01-25T12:54:42.792Z,17.87
2018-01-25T12:57:10.435Z,17.62
2018-01-25T12:59:38.097Z,17.58
2018-01-25T13:02:05.806Z,17.38
2018-01-25T13:04:33.385Z,17.18
2018-01-25T13:07:00.966Z,17.06
2018-01-25T13:09:28.640Z,17.05
2018-01-25T13:11:56.193Z,16.98
2018-01-25T13:14:23.779Z,16.78
2018-01-25T13:16:51.448Z,16.64
2018-01-25T13:19:18.993Z,16.67
2018-01-25T13:21:46.770Z,16.46
2018-01-25T13:24:14.448Z,16.28
2018-01-25T13:26:42.257Z,16.35
2018-01-25T13:29:09.825Z,15.85
2018-01-25T13:31:37.720Z,15.82
2018-01-25T13:34:05.616Z,15.88
2018-01-25T13:36:33.383Z,15.79
2018-01-25T13:39:01.039Z,15.85
2018-01-25T13:41:28.606Z,15.50
2018-01-25T13:43:56.137Z,15.54
2018-01-25T13:46:23.816Z,15.44
2018-01-25T13:48:51.337Z,15.41
2018-01-25T13:51:18.910Z,15.25
2018-01-25T13:53:46.623Z,14.82
2018-01-25T13:56:14.711Z,14.46
2018-01-25T13:58:42.311Z,14.47
2018-01-25T14:01:10.396Z,14.33
2018-01-25T14:03:38.954Z,14.16
2018-01-25T14:06:06.529Z,14.07
2018-01-25T14:08:34.229Z,14.20
2018-01-25T14:11:01.795Z,13.80
2018-01-25T14:13:29.371Z,13.85
2018-01-25T14:15:57.096Z,13.60
2018-01-25T14:18:24.948Z,13.42
2018-01-25T14:20:52.585Z,13.23
2018-01-25T14:23:20.273Z,13.21
2018-01-25T14:25:48.498Z,12.77
2018-01-25T14:28:16.072Z,12.66
2018-01-25T14:30:43.878Z,12.50
2018-01-25T14:33:11.606Z,12.50
2018-01-25T14:35:39.188Z,12.36
2018-01-25T14:38:06.858Z,12.10
2018-01-25T14:40:35.194Z,12.06
2018-01-25T14:43:02.815Z,11.78
2018-01-25T14:45:31.175Z,11.75
2018-01-25T14:47:59.941Z,11.49
2018-01-25T14:50:27.832Z,11.42
2018-01-25T14:52:56.330Z,11.11
2018-01-25T14:55:24.121Z,11.06
2018-01-25T14:57:51.708Z,10.88
2018-01-25T15:00:19.414Z,10.68
2018-01-25T15:02:47.005Z,10.43
2018-01-25T15:05:14.670Z,10.14
2018-01-25T15:07:42.350Z,10.31
2018-01-25T15:10:09.909Z,10.13
2018-01-25T15:12:37.513Z,10.11
2018-01-25T15:15:05.191Z,9.88
2018-01-25T15:17:32.784Z,9.58
2018-01-25T15:20:00.389Z,9.67
2018-01-25T15:22:28.075Z,9.52
2018-01-25T15:25:01.198Z,9.52
2018-01-25T15:27:33.912Z,9.51
2018-01-25T15:30:01.702Z,9.44
2018-01-25T15:32:29.357Z,9.29
2018-01-25T15:34:56.969Z,9.36
2018-01-25T15:37:24.629Z,9.23
2018-01-25T15:39:52.614Z,9.13
2018-01-25T15:42:20.510Z,9.10
2018-01-25T15:44:48.104Z,9.10
2018-01-25T15:47:15.818Z,8.87
2018-01-25T15:49:43.800Z,8.77
2018-01-25T15:52:11.584Z,8.66
2018-01-25T15:54:39.274Z,8.60
2018-01-25T15:57:06.833Z,8.49
2018-01-25T15:59:34.426Z,8.51
2018-01-25T16:02:02.141Z,8.62
2018-01-25T16:04:29.916Z,8.53
2018-01-25T16:06:57.504Z,8.47
2018-01-25T16:09:25.216Z,8.46
2018-01-25T16:11:52.841Z,8.27
2018-01-25T16:14:21.200Z,9.29
2018-01-25T16:16:48.878Z,9.50
2018-01-25T16:19:16.439Z,9.61
2018-01-25T16:21:44.001Z,9.65
2018-01-25T16:24:12.006Z,9.76
2018-01-25T16:26:39.812Z,9.82
2018-01-25T16:29:07.673Z,9.87
2018-01-25T16:31:35.454Z,9.92
2018-01-25T16:34:03.206Z,9.96
2018-01-25T16:36:30.947Z,10.02
2018-01-25T16:38:58.686Z,10.05
2018-01-25T16:41:26.349Z,10.08
2018-01-25T16:43:54.710Z,10.12
2018-01-25T16:46:22.536Z,10.16
2018-01-25T16:48:51.098Z,10.19
2018-01-25T16:51:18.760Z,10.24
2018-01-25T16:53:46.476Z,10.26
2018-01-25T16:56:14.104Z,10.29
2018-01-25T16:58:42.068Z,10.31
2018-01-25T17:01:09.782Z,10.33
2018-01-25T17:03:37.536Z,10.36
2018-01-25T17:06:05.121Z,10.84
2018-01-25T17:08:32.832Z,10.99
2018-01-25T17:11:00.533Z,10.95
2018-01-25T17:13:28.134Z,10.92
2018-01-25T17:15:55.955Z,10.90
2018-01-25T17:18:23.466Z,10.89
2018-01-25T17:20:51.021Z,10.84
2018-01-25T17:23:18.696Z,10.87
2018-01-25T17:25:46.518Z,10.86
2018-01-25T17:28:14.062Z,10.83
2018-01-25T17:30:41.780Z,10.87
2018-01-25T17:33:09.554Z,10.86
2018-01-25T17:35:37.089Z,10.78
2018-01-25T17:38:04.748Z,10.85
2018-01-25T17:40:32.817Z,10.84
2018-01-25T17:43:00.490Z,10.84
2018-01-25T17:45:28.405Z,10.83
2018-01-25T17:47:55.924Z,10.82
2018-01-25T17:50:23.508Z,10.81
2018-01-25T17:52:51.168Z,10.81
2018-01-25T17:55:18.740Z,10.80
2018-01-25T17:57:46.316Z,10.78
2018-01-25T18:00:13.990Z,10.78
2018-01-25T18:02:41.765Z,10.74
2018-01-25T18:05:09.330Z,10.77
2018-01-25T18:07:37.012Z,10.76
2018-01-25T18:10:04.528Z,10.76
2018-01-25T18:12:32.045Z,10.75
2018-01-25T18:14:59.701Z,10.73
2018-01-25T18:17:27.636Z,10.73
2018-01-25T18:19:55.291Z,10.74
2018-01-25T18:22:22.950Z,11.09
2018-01-25T18:24:50.516Z,11.14
2018-01-25T18:27:18.074Z,11.21
2018-01-25T18:29:45.761Z,10.75
2018-01-25T18:32:13.549Z,10.15
2018-01-25T18:34:41.396Z,10.01
2018-01-25T18:37:09.532Z,9.62
2018-01-25T18:39:37.247Z,9.38
2018-01-25T18:42:05.991Z,9.11
2018-01-25T18:44:33.817Z,8.84
2018-01-25T18:47:01.530Z,9.42
2018-01-25T18:49:29.336Z,9.66
2018-01-25T18:51:57.801Z,9.79
2018-01-25T18:54:25.611Z,10.14
2018-01-25T18:56:53.303Z,10.36
2018-01-25T18:59:21.148Z,10.92
2018-01-25T19:01:49.370Z,10.88
2018-01-25T19:04:16.901Z,10.80
2018-01-25T19:06:46.144Z,10.74
2018-01-25T19:09:14.442Z,11.84
2018-01-25T19:12:09.890Z,6.95
2018-01-25T19:14:38.718Z,5.67
2018-01-25T19:17:06.252Z,7.42
2018-01-25T19:19:35.230Z,7.47
2018-01-25T19:22:02.933Z,7.33
2018-01-25T19:24:30.657Z,7.14
2018-01-25T19:26:59.088Z,7.02
2018-01-25T19:29:26.840Z,6.95
2018-01-25T19:31:54.541Z,6.84
2018-01-25T19:34:22.125Z,6.79
2018-01-25T19:36:50.713Z,6.72
2018-01-25T19:39:18.376Z,6.66
2018-01-25T19:41:46.840Z,6.63
2018-01-25T19:44:14.404Z,6.59
2018-01-25T19:46:42.798Z,6.57
2018-01-25T19:49:10.782Z,6.58
2018-01-25T19:51:38.382Z,6.55
2018-01-25T19:54:06.486Z,6.54
2018-01-25T19:56:34.797Z,6.53
2018-01-25T19:59:02.460Z,6.49
2018-01-25T20:01:30.212Z,6.45
2018-01-25T20:03:58.160Z,6.46
2018-01-25T20:06:27.383Z,6.45
2018-01-25T20:08:55.918Z,6.40
2018-01-25T20:11:23.714Z,6.39
2018-01-25T20:13:51.585Z,6.39
2018-01-25T20:16:19.312Z,6.40
2018-01-25T20:18:48.566Z,7.08
2018-01-25T20:21:16.190Z,7.12
2018-01-25T20:23:43.864Z,8.80
2018-01-25T20:26:11.423Z,7.87
2018-01-25T20:28:39.012Z,7.38
2018-01-25T20:31:06.729Z,7.04
2018-01-25T20:33:34.345Z,6.83
2018-01-25T20:36:02.136Z,6.71
2018-01-25T20:38:29.814Z,6.60
2018-01-25T20:40:57.382Z,6.53
2018-01-25T20:43:25.364Z,6.45
2018-01-25T20:45:53.074Z,6.46
2018-01-25T20:48:20.879Z,6.35
2018-01-25T20:50:48.403Z,6.26
2018-01-25T20:53:16.154Z,5.40
2018-01-25T20:55:43.819Z,5.43
2018-01-25T20:58:11.565Z,5.33
2018-01-25T21:00:39.238Z,5.28
2018-01-25T21:03:07.051Z,5.25
2018-01-25T21:05:34.627Z,5.21
2018-01-25T21:08:03.144Z,4.90
2018-01-25T21:10:30.689Z,4.92
2018-01-25T21:12:58.217Z,4.83
2018-01-25T21:15:25.874Z,4.90
2018-01-25T21:17:53.398Z,4.89
2018-01-25T21:20:20.996Z,4.85
2018-01-25T21:22:48.667Z,4.80
2018-01-25T21:25:16.202Z,4.72
2018-01-25T21:27:43.759Z,4.73
2018-01-25T21:30:11.491Z,4.72
2018-01-25T21:32:39.013Z,4.75
2018-01-25T21:35:06.556Z,4.74
2018-01-25T21:37:34.210Z,4.72
2018-01-25T21:40:02.008Z,4.69
2018-01-25T21:42:29.564Z,4.67
2018-01-25T21:44:57.238Z,4.71
2018-01-25T21:47:24.780Z,4.69
2018-01-25T21:49:52.325Z,4.67
2018-01-25T21:52:20.109Z,4.65
2018-01-25T21:54:48.474Z,4.64
2018-01-25T21:57:16.910Z,4.64
2018-01-25T21:59:44.651Z,4.62
2018-01-25T22:02:12.327Z,4.57
2018-01-25T22:04:40.075Z,4.62
2018-01-25T22:07:07.975Z,4.62
2018-01-25T22:09:35.632Z,4.60
2018-01-25T22:12:03.196Z,4.56
2018-01-25T22:14:31.013Z,4.59
2018-01-25T22:16:58.670Z,4.54
2018-01-25T22:19:26.543Z,4.51
2018-01-25T22:21:54.069Z,4.46
2018-01-25T22:24:21.772Z,4.51
2018-01-25T22:26:49.314Z,4.48
2018-01-25T22:29:16.845Z,4.46
2018-01-25T22:31:44.482Z,4.43
2018-01-25T22:34:12.286Z,4.41
2018-01-25T22:36:39.871Z,4.46
2018-01-25T22:39:07.516Z,4.45
2018-01-25T22:41:35.065Z,4.41
2018-01-25T22:44:02.589Z,4.42
2018-01-25T22:46:30.283Z,4.40
2018-01-25T22:48:57.801Z,4.36
2018-01-25T22:51:25.550Z,4.39
2018-01-25T22:53:53.232Z,4.37
2018-01-25T22:56:20.758Z,4.33
2018-01-25T22:58:48.290Z,4.40
2018-01-25T23:01:18.847Z,4.32
2018-01-25T23:03:46.404Z,4.34
2018-01-25T23:06:13.974Z,4.31
2018-01-25T23:08:41.627Z,4.35
2018-01-25T23:11:09.157Z,4.33
2018-01-25T23:13:36.680Z,4.30
2018-01-25T23:16:04.338Z,4.26
2018-01-25T23:18:31.859Z,4.35
2018-01-25T23:20:59.383Z,4.27
2018-01-25T23:23:27.034Z,4.33
2018-01-25T23:25:54.583Z,4.29
2018-01-25T23:28:22.120Z,4.31
2018-01-25T23:30:49.836Z,4.29
2018-01-25T23:33:17.366Z,4.24
2018-01-25T23:35:46.152Z,4.28
2018-01-25T23:38:13.832Z,4.26
2018-01-25T23:40:41.374Z,4.27
2018-01-25T23:43:09.024Z,4.24
2018-01-25T23:45:37.063Z,4.21
2018-01-25T23:48:04.827Z,4.27
2018-01-25T23:50:32.363Z,4.24
2018-01-25T23:53:00.780Z,4.22
2018-01-25T23:55:28.701Z,4.20
2018-01-25T23:57:56.255Z,4.17
